Arthur Brusco — WDC3449 — position and weather

sailwx.info

Track history (hours):
 
Tides and Currents Weather Stations Pressure Air Temp Water Temp Dewpoint Dewpoint Depression Visibility Wind Speed Wind Dir Waves Ship Positions

Arthur Brusco

Owner: Brusco Tug & Barge, Inc, Longview, WA. More information available from US FCC via Universal Licensing System and Coast Guard Vessel Documentation Center.

Last reported at 2016-Sep-01 03:33 UTC. Time now 2016-Sep-01 03:37 UTC.
Position N 37°38' W 123°08'.

Length 35 m; draft 3.2 m.

Type: Other ship. MMSI: 271040404.

Date/timePositionNaut miles runAvg speedWind from/ knotsBaromVisibWave heightAir tempDewpointWater temp
2016-Sep-01 03:33N 37°38' W 123°08'6 5.6
2016-Sep-01 02:33N 37°38' W 123°01'23 6.7
2016-Aug-31 23:05N 37°47' W 122°34'5 9.3
2016-Aug-31 22:33N 37°49' W 122°28'7 6.6
2016-Aug-31 21:33N 37°49' W 122°20'3 3.1
2016-Aug-31 20:33N 37°50' W 122°23'7 6.7
2016-Aug-31 19:34N 37°48' W 122°31'19 8.3
2016-Aug-31 17:16N 37°39' W 122°52'6 8.1
2016-Aug-31 16:32N 37°37' W 122°59'11 7.8
2016-Aug-31 15:07N 37°38' W 123°13'6 1.9
2016-Aug-31 12:05N 37°38' W 123°20'4 5.5
2016-Aug-31 11:17N 37°38' W 123°15'5 5.4
2016-Aug-31 10:24N 37°38' W 123°08'4 5.0
2016-Aug-31 09:33N 37°37' W 123°03'6 5.7
2016-Aug-31 08:33N 37°39' W 122°56'6 6.0
2016-Aug-31 07:33N 37°42' W 122°50'6 5.6
2016-Aug-31 06:31N 37°44' W 122°43'10 5.1
2016-Aug-31 04:33N 37°48' W 122°31'4 3.8
2016-Aug-31 03:33N 37°50' W 122°27'4 4.4
2016-Aug-31 02:33N 37°48' W 122°22'3 2.8
2016-Aug-31 01:33N 37°49' W 122°19'0 0.0
2016-Aug-31 00:33N 37°49' W 122°19'0 0.0
2016-Aug-30 23:33N 37°49' W 122°19'1 1.1
2016-Aug-30 22:33N 37°49' W 122°20'2 1.6
2016-Aug-30 21:33N 37°50' W 122°21'2 2.4
2016-Aug-30 20:33N 37°49' W 122°19'0 0.0
2016-Aug-30 19:33N 37°49' W 122°19'0 0.0
2016-Aug-30 18:33N 37°49' W 122°19'0 0.0
2016-Aug-30 17:33N 37°49' W 122°19'0 0.0
2016-Aug-30 16:33N 37°49' W 122°19'0 0.0
2016-Aug-30 15:33N 37°49' W 122°19'0 0.0
2016-Aug-30 14:33N 37°49' W 122°19'0 0.0
2016-Aug-30 13:33N 37°49' W 122°19'0 0.0
2016-Aug-30 12:33N 37°49' W 122°19'0 0.0
2016-Aug-30 11:33N 37°49' W 122°19'1 1.0
2016-Aug-30 10:33N 37°49' W 122°20'1 1.0
2016-Aug-30 09:33N 37°49' W 122°19'0 0.2
2016-Aug-30 08:34N 37°49' W 122°19'4 3.6
2016-Aug-30 07:33N 37°50' W 122°23'6 5.7
2016-Aug-30 06:33N 37°49' W 122°30'9 8.6
2016-Aug-30 05:33N 37°45' W 122°40'10 9.0
2016-Aug-30 04:27N 37°39' W 122°50'9 9.8
2016-Aug-30 03:31N 37°34' W 122°60'10 9.3
2016-Aug-30 02:24N 37°35' W 123°13'8 9.9
2016-Aug-30 01:32N 37°37' W 123°23'1 1.1
2016-Aug-30 00:27N 37°39' W 123°24'9 8.3
2016-Aug-29 23:25N 37°38' W 123°13'7 8.0
2016-Aug-29 22:33N 37°37' W 123°04'17 7.9
2016-Aug-29 20:22N 37°44' W 122°44'8 7.8
2016-Aug-29 19:18N 37°47' W 122°34'6 7.7
2016-Aug-29 18:33N 37°50' W 122°28'6 6.2
2016-Aug-29 17:33N 37°49' W 122°20'0 0.2
2016-Aug-29 16:33N 37°49' W 122°20'0 0.1
2016-Aug-29 15:34N 37°49' W 122°20'1 1.0
2016-Aug-29 14:33N 37°49' W 122°19'0 0.0
2016-Aug-29 13:33N 37°49' W 122°19'0 0.0
2016-Aug-29 12:33N 37°49' W 122°19'0 0.0
2016-Aug-29 11:33N 37°49' W 122°18'0 0.0
2016-Aug-29 10:33N 37°49' W 122°19'2 2.3
2016-Aug-29 09:33N 37°49' W 122°21'1 0.5
2016-Aug-29 08:33N 37°50' W 122°21'0 0.0
2016-Aug-29 07:33N 37°50' W 122°21'0 0.0
2016-Aug-29 06:33N 37°50' W 122°21'0 0.0
2016-Aug-29 05:33N 37°50' W 122°21'0 0.1
2016-Aug-29 04:33N 37°50' W 122°21'0 0.1
2016-Aug-29 03:33N 37°50' W 122°21'0 0.0
2016-Aug-29 02:33N 37°50' W 122°21'2 1.8
2016-Aug-29 01:33N 37°49' W 122°19'0 0.2
2016-Aug-29 00:34N 37°49' W 122°20'1 0.6
2016-Aug-28 23:33N 37°49' W 122°19'0 0.5
2016-Aug-28 22:33N 37°49' W 122°18'0 0.3
2016-Aug-28 21:33N 37°49' W 122°19'1 0.7
2016-Aug-28 20:33N 37°49' W 122°20'0 0.3
2016-Aug-28 19:33N 37°49' W 122°20'0 0.0
2016-Aug-28 18:33N 37°49' W 122°20'1 1.4
2016-Aug-28 17:34N 37°50' W 122°21'7 6.6
2016-Aug-28 16:33N 37°49' W 122°30'10 9.5
2016-Aug-28 15:32N 37°44' W 122°41'11 8.6
2016-Aug-28 14:15N 37°38' W 122°52'6 9.2
2016-Aug-28 13:33N 37°35' W 122°59'8 8.1
2016-Aug-28 12:31N 37°34' W 123°09'9 8.5
2016-Aug-28 11:28N 37°37' W 123°20'7 7.9
2016-Aug-28 10:33N 37°39' W 123°29'7 6.7
2016-Aug-28 09:33N 37°38' W 123°20'8 7.7
2016-Aug-28 08:33N 37°38' W 123°11'8 7.4
2016-Aug-28 07:26N 37°37' W 123°00'7 7.6
2016-Aug-28 06:33N 37°40' W 122°53'9 7.5
2016-Aug-28 05:23N 37°44' W 122°43'7 7.4
2016-Aug-28 04:29N 37°47' W 122°35'6 6.7
2016-Aug-28 03:33N 37°49' W 122°28'5 5.2
2016-Aug-28 02:33N 37°48' W 122°21'2 1.5
2016-Aug-28 01:34N 37°50' W 122°21'0 0.1
2016-Aug-28 00:33N 37°50' W 122°21'3 2.7
2016-Aug-27 23:33N 37°49' W 122°25'8 7.9
2016-Aug-27 22:33N 37°47' W 122°34'11 7.2
2016-Aug-27 21:04N 37°41' W 122°46'5 9.0
2016-Aug-27 20:33N 37°39' W 122°51'9 8.9
2016-Aug-27 19:33N 37°34' W 123°00'9 8.2
2016-Aug-27 18:31N 37°34' W 123°11'13 5.7
2016-Aug-27 16:18N 37°39' W 123°26'5 6.8
2016-Aug-27 15:30N 37°38' W 123°19'7 6.9
2016-Aug-27 14:33N 37°38' W 123°11'7 6.9
2016-Aug-27 13:33N 37°37' W 123°02'10 6.5
2016-Aug-27 12:03N 37°41' W 122°51'4 6.7
2016-Aug-27 11:25N 37°43' W 122°46'6 6.8
2016-Aug-27 10:33N 37°46' W 122°39'7 7.3
2016-Aug-27 09:33N 37°48' W 122°31'7 7.3
2016-Aug-27 08:33N 37°48' W 122°22'3 2.6
2016-Aug-27 07:33N 37°49' W 122°19'0 0.0
2016-Aug-27 06:33N 37°49' W 122°19'3 1.3
2016-Aug-27 04:34N 37°50' W 122°22'5 5.2
2016-Aug-27 03:33N 37°45' W 122°21'5 4.7
2016-Aug-27 02:33N 37°50' W 122°21'5 4.7
2016-Aug-27 01:33N 37°45' W 122°21'4 3.8
2016-Aug-27 00:33N 37°49' W 122°21'2 2.3
2016-Aug-26 23:33N 37°46' W 122°21'1 1.5
2016-Aug-26 22:33N 37°45' W 122°21'2 1.6
2016-Aug-26 21:33N 37°46' W 122°19'0 0.3
2016-Aug-26 20:33N 37°46' W 122°20'0 0.1
2016-Aug-26 19:33N 37°46' W 122°20'3 3.1
2016-Aug-26 18:33N 37°49' W 122°19'0 0.0
2016-Aug-26 17:33N 37°49' W 122°19'0 0.0
2016-Aug-26 16:33N 37°49' W 122°18'2 1.9
2016-Aug-26 15:34N 37°48' W 122°21'6 6.1
2016-Aug-26 14:33N 37°49' W 122°28'11 9.9
2016-Aug-26 13:29N 37°45' W 122°41'9 9.0
2016-Aug-26 12:30N 37°39' W 122°50'9 9.7
2016-Aug-26 11:33N 37°34' W 122°59'9 8.5
2016-Aug-26 10:33N 37°34' W 123°10'9 9.2
2016-Aug-26 09:33N 37°37' W 123°21'4 4.0
2016-Aug-26 08:26N 37°39' W 123°26'7 8.2
2016-Aug-26 07:33N 37°38' W 123°17'8 8.1
2016-Aug-26 06:33N 37°38' W 123°07'17 8.3
2016-Aug-26 04:30N 37°43' W 122°46'10 8.3
2016-Aug-26 03:18N 37°47' W 122°35'6 8.2
2016-Aug-26 02:33N 37°49' W 122°28'6 6.4
2016-Aug-26 01:33N 37°49' W 122°20'2 1.6
2016-Aug-26 00:33N 37°50' W 122°21'3 3.1
2016-Aug-25 23:34N 37°47' W 122°20'3 3.1
2016-Aug-25 22:34N 37°50' W 122°21'2 2.4
2016-Aug-25 21:33N 37°48' W 122°21'2 2.3
2016-Aug-25 20:33N 37°50' W 122°21'2 2.2
2016-Aug-25 19:33N 37°49' W 122°19'0 0.1
2016-Aug-25 18:33N 37°49' W 122°19'0 0.0
2016-Aug-25 17:33N 37°49' W 122°19'0 0.0
2016-Aug-25 16:33N 37°49' W 122°19'0 0.0
2016-Aug-25 15:33N 37°49' W 122°19'3 2.8
2016-Aug-25 14:33N 37°50' W 122°22'7 6.8
2016-Aug-25 13:33N 37°48' W 122°30'9 8.8
2016-Aug-25 12:32N 37°45' W 122°41'10 8.9
2016-Aug-25 11:22N 37°39' W 122°51'8 9.2
2016-Aug-25 10:31N 37°34' W 122°60'8 8.4
2016-Aug-25 09:31N 37°34' W 123°10'9 8.9
2016-Aug-25 08:29N 37°37' W 123°21'5 4.7
2016-Aug-25 07:26N 37°39' W 123°27'7 8.0
2016-Aug-25 06:33N 37°38' W 123°18'16 8.1
2016-Aug-25 04:33N 37°38' W 122°58'9 8.9
2016-Aug-25 03:32N 37°43' W 122°48'8 8.3
2016-Aug-25 02:32N 37°46' W 122°38'8 8.7
2016-Aug-25 01:33N 37°49' W 122°28'7 6.7
2016-Aug-25 00:33N 37°49' W 122°20'2 1.6
2016-Aug-24 23:34N 37°50' W 122°22'0 0.2
2016-Aug-24 22:33N 37°50' W 122°21'0 0.0
2016-Aug-24 21:33N 37°50' W 122°21'0 0.0
2016-Aug-24 20:33N 37°50' W 122°21'0 0.0
2016-Aug-24 19:33N 37°50' W 122°21'2 2.3
2016-Aug-24 18:33N 37°49' W 122°18'2 2.4
2016-Aug-24 17:33N 37°50' W 122°21'4 4.0
2016-Aug-24 16:33N 37°49' W 122°26'6 6.2
2016-Aug-24 15:33N 37°47' W 122°34'8 7.7
2016-Aug-24 14:32N 37°43' W 122°43'10 9.1
2016-Aug-24 13:30N 37°38' W 122°52'8 8.8
2016-Aug-24 12:33N 37°33' W 123°01'10 8.3
2016-Aug-24 11:24N 37°35' W 123°13'5 1.9
2016-Aug-24 08:33N 37°38' W 123°18'7 6.8
2016-Aug-24 07:33N 37°38' W 123°10'7 6.8
2016-Aug-24 06:33N 37°37' W 123°02'14 6.9
2016-Aug-24 04:33N 37°43' W 122°46'7 6.9
2016-Aug-24 03:29N 37°46' W 122°37'8 8.7
2016-Aug-24 02:33N 37°49' W 122°28'6 5.5
2016-Aug-24 01:33N 37°48' W 122°21'2 1.5
2016-Aug-24 00:33N 37°50' W 122°21'0 0.0
2016-Aug-23 23:33N 37°50' W 122°21'0 0.0
2016-Aug-23 22:33N 37°50' W 122°21'0 0.0
2016-Aug-23 21:33N 37°50' W 122°21'0 0.0
2016-Aug-23 20:33N 37°50' W 122°21'0 0.0
2016-Aug-23 19:33N 37°50' W 122°21'0 0.0
2016-Aug-23 18:33N 37°50' W 122°21'0 0.0
2016-Aug-23 17:33N 37°50' W 122°21'1 0.5
2016-Aug-23 16:33N 37°49' W 122°21'6 6.0
2016-Aug-23 15:33N 37°47' W 122°15'4 4.4
2016-Aug-23 14:33N 37°49' W 122°19'0 0.5
2016-Aug-23 13:33N 37°49' W 122°19'0 0.0
2016-Aug-23 12:33N 37°49' W 122°19'0 0.0
2016-Aug-23 11:33N 37°49' W 122°19'0 0.0
2016-Aug-23 10:33N 37°49' W 122°19'0 0.0
2016-Aug-23 09:33N 37°49' W 122°19'0 0.0
2016-Aug-23 08:33N 37°49' W 122°19'0 0.0
2016-Aug-23 07:33N 37°49' W 122°19'0 0.0
2016-Aug-23 06:33N 37°49' W 122°19'0 0.0
2016-Aug-23 05:33N 37°49' W 122°19'0 0.0
2016-Aug-23 04:34N 37°49' W 122°19'0 0.0
2016-Aug-23 03:33N 37°49' W 122°19'0 0.0
2016-Aug-23 02:33N 37°49' W 122°19'0 0.0
2016-Aug-23 01:33N 37°49' W 122°19'2 2.1
2016-Aug-23 00:33N 37°50' W 122°21'0 0.1
2016-Aug-22 23:33N 37°50' W 122°21'0 0.0
2016-Aug-22 22:33N 37°50' W 122°21'0 0.0
2016-Aug-22 21:33N 37°50' W 122°21'0 0.0
2016-Aug-22 20:33N 37°50' W 122°21'0 0.0
2016-Aug-22 19:33N 37°50' W 122°21'0 0.0
2016-Aug-22 18:33N 37°50' W 122°21'0 0.0
2016-Aug-22 17:33N 37°50' W 122°21'0 0.0
2016-Aug-22 16:33N 37°50' W 122°21'3 2.9
2016-Aug-22 15:33N 37°49' W 122°25'6 5.7
2016-Aug-22 14:33N 37°48' W 122°32'7 6.9
2016-Aug-22 13:33N 37°45' W 122°40'8 8.3
2016-Aug-22 12:33N 37°40' W 122°48'9 8.8
2016-Aug-22 11:33N 37°35' W 122°58'8 8.1
2016-Aug-22 10:33N 37°33' W 123°08'18 7.6
2016-Aug-22 08:14N 37°39' W 123°29'10 5.7
2016-Aug-22 06:29N 37°38' W 123°16'7 7.6
2016-Aug-22 05:33N 37°38' W 123°08'8 7.7
2016-Aug-22 04:33N 37°38' W 122°58'8 8.0
2016-Aug-22 03:33N 37°42' W 122°49'8 7.6
2016-Aug-22 02:33N 37°46' W 122°41'  
Track history (hours):
 
Tides and Currents Weather Stations Pressure Air Temp Water Temp Dewpoint Dewpoint Depression Visibility Wind Speed Wind Dir Waves Ship Positions

Arthur Brusco

Owner: Brusco Tug & Barge, Inc, Longview, WA. More information available from US FCC via Universal Licensing System and Coast Guard Vessel Documentation Center.

Last reported at 2016-Sep-01 03:33 UTC. Time now 2016-Sep-01 03:37 UTC.
Position N 37°38' W 123°08'.

Length 35 m; draft 3.2 m.

Type: Other ship. MMSI: 271040404.

Date/timePositionNaut miles runAvg speedWind from/ knotsBaromVisibWave heightAir tempDewpointWater temp
2016-Sep-01 03:33N 37°38' W 123°08'6 5.6
2016-Sep-01 02:33N 37°38' W 123°01'23 6.7
2016-Aug-31 23:05N 37°47' W 122°34'5 9.3
2016-Aug-31 22:33N 37°49' W 122°28'7 6.6
2016-Aug-31 21:33N 37°49' W 122°20'3 3.1
2016-Aug-31 20:33N 37°50' W 122°23'7 6.7
2016-Aug-31 19:34N 37°48' W 122°31'19 8.3
2016-Aug-31 17:16N 37°39' W 122°52'6 8.1
2016-Aug-31 16:32N 37°37' W 122°59'11 7.8
2016-Aug-31 15:07N 37°38' W 123°13'6 1.9
2016-Aug-31 12:05N 37°38' W 123°20'4 5.5
2016-Aug-31 11:17N 37°38' W 123°15'5 5.4
2016-Aug-31 10:24N 37°38' W 123°08'4 5.0
2016-Aug-31 09:33N 37°37' W 123°03'6 5.7
2016-Aug-31 08:33N 37°39' W 122°56'6 6.0
2016-Aug-31 07:33N 37°42' W 122°50'6 5.6
2016-Aug-31 06:31N 37°44' W 122°43'10 5.1
2016-Aug-31 04:33N 37°48' W 122°31'4 3.8
2016-Aug-31 03:33N 37°50' W 122°27'4 4.4
2016-Aug-31 02:33N 37°48' W 122°22'3 2.8
2016-Aug-31 01:33N 37°49' W 122°19'0 0.0
2016-Aug-31 00:33N 37°49' W 122°19'0 0.0
2016-Aug-30 23:33N 37°49' W 122°19'1 1.1
2016-Aug-30 22:33N 37°49' W 122°20'2 1.6
2016-Aug-30 21:33N 37°50' W 122°21'2 2.4
2016-Aug-30 20:33N 37°49' W 122°19'0 0.0
2016-Aug-30 19:33N 37°49' W 122°19'0 0.0
2016-Aug-30 18:33N 37°49' W 122°19'0 0.0
2016-Aug-30 17:33N 37°49' W 122°19'0 0.0
2016-Aug-30 16:33N 37°49' W 122°19'0 0.0
2016-Aug-30 15:33N 37°49' W 122°19'0 0.0
2016-Aug-30 14:33N 37°49' W 122°19'0 0.0
2016-Aug-30 13:33N 37°49' W 122°19'0 0.0
2016-Aug-30 12:33N 37°49' W 122°19'0 0.0
2016-Aug-30 11:33N 37°49' W 122°19'1 1.0
2016-Aug-30 10:33N 37°49' W 122°20'1 1.0
2016-Aug-30 09:33N 37°49' W 122°19'0 0.2
2016-Aug-30 08:34N 37°49' W 122°19'4 3.6
2016-Aug-30 07:33N 37°50' W 122°23'6 5.7
2016-Aug-30 06:33N 37°49' W 122°30'9 8.6
2016-Aug-30 05:33N 37°45' W 122°40'10 9.0
2016-Aug-30 04:27N 37°39' W 122°50'9 9.8
2016-Aug-30 03:31N 37°34' W 122°60'10 9.3
2016-Aug-30 02:24N 37°35' W 123°13'8 9.9
2016-Aug-30 01:32N 37°37' W 123°23'1 1.1
2016-Aug-30 00:27N 37°39' W 123°24'9 8.3
2016-Aug-29 23:25N 37°38' W 123°13'7 8.0
2016-Aug-29 22:33N 37°37' W 123°04'17 7.9
2016-Aug-29 20:22N 37°44' W 122°44'8 7.8
2016-Aug-29 19:18N 37°47' W 122°34'6 7.7
2016-Aug-29 18:33N 37°50' W 122°28'6 6.2
2016-Aug-29 17:33N 37°49' W 122°20'0 0.2
2016-Aug-29 16:33N 37°49' W 122°20'0 0.1
2016-Aug-29 15:34N 37°49' W 122°20'1 1.0
2016-Aug-29 14:33N 37°49' W 122°19'0 0.0
2016-Aug-29 13:33N 37°49' W 122°19'0 0.0
2016-Aug-29 12:33N 37°49' W 122°19'0 0.0
2016-Aug-29 11:33N 37°49' W 122°18'0 0.0
2016-Aug-29 10:33N 37°49' W 122°19'2 2.3
2016-Aug-29 09:33N 37°49' W 122°21'1 0.5
2016-Aug-29 08:33N 37°50' W 122°21'0 0.0
2016-Aug-29 07:33N 37°50' W 122°21'0 0.0
2016-Aug-29 06:33N 37°50' W 122°21'0 0.0
2016-Aug-29 05:33N 37°50' W 122°21'0 0.1
2016-Aug-29 04:33N 37°50' W 122°21'0 0.1
2016-Aug-29 03:33N 37°50' W 122°21'0 0.0
2016-Aug-29 02:33N 37°50' W 122°21'2 1.8
2016-Aug-29 01:33N 37°49' W 122°19'0 0.2
2016-Aug-29 00:34N 37°49' W 122°20'1 0.6
2016-Aug-28 23:33N 37°49' W 122°19'0 0.5
2016-Aug-28 22:33N 37°49' W 122°18'0 0.3
2016-Aug-28 21:33N 37°49' W 122°19'1 0.7
2016-Aug-28 20:33N 37°49' W 122°20'0 0.3
2016-Aug-28 19:33N 37°49' W 122°20'0 0.0
2016-Aug-28 18:33N 37°49' W 122°20'1 1.4
2016-Aug-28 17:34N 37°50' W 122°21'7 6.6
2016-Aug-28 16:33N 37°49' W 122°30'10 9.5
2016-Aug-28 15:32N 37°44' W 122°41'11 8.6
2016-Aug-28 14:15N 37°38' W 122°52'6 9.2
2016-Aug-28 13:33N 37°35' W 122°59'8 8.1
2016-Aug-28 12:31N 37°34' W 123°09'9 8.5
2016-Aug-28 11:28N 37°37' W 123°20'7 7.9
2016-Aug-28 10:33N 37°39' W 123°29'7 6.7
2016-Aug-28 09:33N 37°38' W 123°20'8 7.7
2016-Aug-28 08:33N 37°38' W 123°11'8 7.4
2016-Aug-28 07:26N 37°37' W 123°00'7 7.6
2016-Aug-28 06:33N 37°40' W 122°53'9 7.5
2016-Aug-28 05:23N 37°44' W 122°43'7 7.4
2016-Aug-28 04:29N 37°47' W 122°35'6 6.7
2016-Aug-28 03:33N 37°49' W 122°28'5 5.2
2016-Aug-28 02:33N 37°48' W 122°21'2 1.5
2016-Aug-28 01:34N 37°50' W 122°21'0 0.1
2016-Aug-28 00:33N 37°50' W 122°21'3 2.7
2016-Aug-27 23:33N 37°49' W 122°25'8 7.9
2016-Aug-27 22:33N 37°47' W 122°34'11 7.2
2016-Aug-27 21:04N 37°41' W 122°46'5 9.0
2016-Aug-27 20:33N 37°39' W 122°51'9 8.9
2016-Aug-27 19:33N 37°34' W 123°00'9 8.2
2016-Aug-27 18:31N 37°34' W 123°11'13 5.7
2016-Aug-27 16:18N 37°39' W 123°26'5 6.8
2016-Aug-27 15:30N 37°38' W 123°19'7 6.9
2016-Aug-27 14:33N 37°38' W 123°11'7 6.9
2016-Aug-27 13:33N 37°37' W 123°02'10 6.5
2016-Aug-27 12:03N 37°41' W 122°51'4 6.7
2016-Aug-27 11:25N 37°43' W 122°46'6 6.8
2016-Aug-27 10:33N 37°46' W 122°39'7 7.3
2016-Aug-27 09:33N 37°48' W 122°31'7 7.3
2016-Aug-27 08:33N 37°48' W 122°22'3 2.6
2016-Aug-27 07:33N 37°49' W 122°19'0 0.0
2016-Aug-27 06:33N 37°49' W 122°19'3 1.3
2016-Aug-27 04:34N 37°50' W 122°22'5 5.2
2016-Aug-27 03:33N 37°45' W 122°21'5 4.7
2016-Aug-27 02:33N 37°50' W 122°21'5 4.7
2016-Aug-27 01:33N 37°45' W 122°21'4 3.8
2016-Aug-27 00:33N 37°49' W 122°21'2 2.3
2016-Aug-26 23:33N 37°46' W 122°21'1 1.5
2016-Aug-26 22:33N 37°45' W 122°21'2 1.6
2016-Aug-26 21:33N 37°46' W 122°19'0 0.3
2016-Aug-26 20:33N 37°46' W 122°20'0 0.1
2016-Aug-26 19:33N 37°46' W 122°20'3 3.1
2016-Aug-26 18:33N 37°49' W 122°19'0 0.0
2016-Aug-26 17:33N 37°49' W 122°19'0 0.0
2016-Aug-26 16:33N 37°49' W 122°18'2 1.9
2016-Aug-26 15:34N 37°48' W 122°21'6 6.1
2016-Aug-26 14:33N 37°49' W 122°28'11 9.9
2016-Aug-26 13:29N 37°45' W 122°41'9 9.0
2016-Aug-26 12:30N 37°39' W 122°50'9 9.7
2016-Aug-26 11:33N 37°34' W 122°59'9 8.5
2016-Aug-26 10:33N 37°34' W 123°10'9 9.2
2016-Aug-26 09:33N 37°37' W 123°21'4 4.0
2016-Aug-26 08:26N 37°39' W 123°26'7 8.2
2016-Aug-26 07:33N 37°38' W 123°17'8 8.1
2016-Aug-26 06:33N 37°38' W 123°07'17 8.3
2016-Aug-26 04:30N 37°43' W 122°46'10 8.3
2016-Aug-26 03:18N 37°47' W 122°35'6 8.2
2016-Aug-26 02:33N 37°49' W 122°28'6 6.4
2016-Aug-26 01:33N 37°49' W 122°20'2 1.6
2016-Aug-26 00:33N 37°50' W 122°21'3 3.1
2016-Aug-25 23:34N 37°47' W 122°20'3 3.1
2016-Aug-25 22:34N 37°50' W 122°21'2 2.4
2016-Aug-25 21:33N 37°48' W 122°21'2 2.3
2016-Aug-25 20:33N 37°50' W 122°21'2 2.2
2016-Aug-25 19:33N 37°49' W 122°19'0 0.1
2016-Aug-25 18:33N 37°49' W 122°19'0 0.0
2016-Aug-25 17:33N 37°49' W 122°19'0 0.0
2016-Aug-25 16:33N 37°49' W 122°19'0 0.0
2016-Aug-25 15:33N 37°49' W 122°19'3 2.8
2016-Aug-25 14:33N 37°50' W 122°22'7 6.8
2016-Aug-25 13:33N 37°48' W 122°30'9 8.8
2016-Aug-25 12:32N 37°45' W 122°41'10 8.9
2016-Aug-25 11:22N 37°39' W 122°51'8 9.2
2016-Aug-25 10:31N 37°34' W 122°60'8 8.4
2016-Aug-25 09:31N 37°34' W 123°10'9 8.9
2016-Aug-25 08:29N 37°37' W 123°21'5 4.7
2016-Aug-25 07:26N 37°39' W 123°27'7 8.0
2016-Aug-25 06:33N 37°38' W 123°18'16 8.1
2016-Aug-25 04:33N 37°38' W 122°58'9 8.9
2016-Aug-25 03:32N 37°43' W 122°48'8 8.3
2016-Aug-25 02:32N 37°46' W 122°38'8 8.7
2016-Aug-25 01:33N 37°49' W 122°28'7 6.7
2016-Aug-25 00:33N 37°49' W 122°20'2 1.6
2016-Aug-24 23:34N 37°50' W 122°22'0 0.2
2016-Aug-24 22:33N 37°50' W 122°21'0 0.0
2016-Aug-24 21:33N 37°50' W 122°21'0 0.0
2016-Aug-24 20:33N 37°50' W 122°21'0 0.0
2016-Aug-24 19:33N 37°50' W 122°21'2 2.3
2016-Aug-24 18:33N 37°49' W 122°18'2 2.4
2016-Aug-24 17:33N 37°50' W 122°21'4 4.0
2016-Aug-24 16:33N 37°49' W 122°26'6 6.2
2016-Aug-24 15:33N 37°47' W 122°34'8 7.7
2016-Aug-24 14:32N 37°43' W 122°43'10 9.1
2016-Aug-24 13:30N 37°38' W 122°52'8 8.8
2016-Aug-24 12:33N 37°33' W 123°01'10 8.3
2016-Aug-24 11:24N 37°35' W 123°13'5 1.9
2016-Aug-24 08:33N 37°38' W 123°18'7 6.8
2016-Aug-24 07:33N 37°38' W 123°10'7 6.8
2016-Aug-24 06:33N 37°37' W 123°02'14 6.9
2016-Aug-24 04:33N 37°43' W 122°46'7 6.9
2016-Aug-24 03:29N 37°46' W 122°37'8 8.7
2016-Aug-24 02:33N 37°49' W 122°28'6 5.5
2016-Aug-24 01:33N 37°48' W 122°21'2 1.5
2016-Aug-24 00:33N 37°50' W 122°21'0 0.0
2016-Aug-23 23:33N 37°50' W 122°21'0 0.0
2016-Aug-23 22:33N 37°50' W 122°21'0 0.0
2016-Aug-23 21:33N 37°50' W 122°21'0 0.0
2016-Aug-23 20:33N 37°50' W 122°21'0 0.0
2016-Aug-23 19:33N 37°50' W 122°21'0 0.0
2016-Aug-23 18:33N 37°50' W 122°21'0 0.0
2016-Aug-23 17:33N 37°50' W 122°21'1 0.5
2016-Aug-23 16:33N 37°49' W 122°21'6 6.0
2016-Aug-23 15:33N 37°47' W 122°15'4 4.4
2016-Aug-23 14:33N 37°49' W 122°19'0 0.5
2016-Aug-23 13:33N 37°49' W 122°19'0 0.0
2016-Aug-23 12:33N 37°49' W 122°19'0 0.0
2016-Aug-23 11:33N 37°49' W 122°19'0 0.0
2016-Aug-23 10:33N 37°49' W 122°19'0 0.0
2016-Aug-23 09:33N 37°49' W 122°19'0 0.0
2016-Aug-23 08:33N 37°49' W 122°19'0 0.0
2016-Aug-23 07:33N 37°49' W 122°19'0 0.0
2016-Aug-23 06:33N 37°49' W 122°19'0 0.0
2016-Aug-23 05:33N 37°49' W 122°19'0 0.0
2016-Aug-23 04:34N 37°49' W 122°19'0 0.0
2016-Aug-23 03:33N 37°49' W 122°19'0 0.0
2016-Aug-23 02:33N 37°49' W 122°19'0 0.0
2016-Aug-23 01:33N 37°49' W 122°19'2 2.1
2016-Aug-23 00:33N 37°50' W 122°21'0 0.1
2016-Aug-22 23:33N 37°50' W 122°21'0 0.0
2016-Aug-22 22:33N 37°50' W 122°21'0 0.0
2016-Aug-22 21:33N 37°50' W 122°21'0 0.0
2016-Aug-22 20:33N 37°50' W 122°21'0 0.0
2016-Aug-22 19:33N 37°50' W 122°21'0 0.0
2016-Aug-22 18:33N 37°50' W 122°21'0 0.0
2016-Aug-22 17:33N 37°50' W 122°21'0 0.0
2016-Aug-22 16:33N 37°50' W 122°21'3 2.9
2016-Aug-22 15:33N 37°49' W 122°25'6 5.7
2016-Aug-22 14:33N 37°48' W 122°32'7 6.9
2016-Aug-22 13:33N 37°45' W 122°40'8 8.3
2016-Aug-22 12:33N 37°40' W 122°48'9 8.8
2016-Aug-22 11:33N 37°35' W 122°58'8 8.1
2016-Aug-22 10:33N 37°33' W 123°08'18 7.6
2016-Aug-22 08:14N 37°39' W 123°29'10 5.7
2016-Aug-22 06:29N 37°38' W 123°16'7 7.6
2016-Aug-22 05:33N 37°38' W 123°08'8 7.7
2016-Aug-22 04:33N 37°38' W 122°58'8 8.0
2016-Aug-22 03:33N 37°42' W 122°49'8 7.6
2016-Aug-22 02:33N 37°46' W 122°41'  

Dump ship's entire track history